createdAt,value
2018-06-17T00:01:46.046Z,4.90
2018-06-17T00:04:14.549Z,5.93
2018-06-17T00:06:43.034Z,5.70
2018-06-17T00:09:11.523Z,5.50
2018-06-17T00:11:39.971Z,5.37
2018-06-17T00:14:08.454Z,5.60
2018-06-17T00:16:36.932Z,5.80
2018-06-17T00:19:05.639Z,5.87
2018-06-17T00:21:34.078Z,5.40
2018-06-17T00:24:02.538Z,5.60
2018-06-17T00:26:30.990Z,5.43
2018-06-17T00:28:59.516Z,4.73
2018-06-17T00:31:27.995Z,5.00
2018-06-17T00:33:56.470Z,5.30
2018-06-17T00:36:25.026Z,5.30
2018-06-17T00:38:53.549Z,5.30
2018-06-17T00:41:22.023Z,5.23
2018-06-17T00:43:50.469Z,4.53
2018-06-17T00:46:18.938Z,5.30
2018-06-17T00:48:47.377Z,4.93
2018-06-17T00:51:15.862Z,4.77
2018-06-17T00:53:44.310Z,5.10
2018-06-17T00:56:12.799Z,5.00
2018-06-17T00:58:41.300Z,5.20
2018-06-17T01:01:09.786Z,4.47
2018-06-17T01:03:38.299Z,5.70
2018-06-17T01:06:06.781Z,4.80
2018-06-17T01:08:35.250Z,4.73
2018-06-17T01:11:03.731Z,5.70
2018-06-17T01:13:32.174Z,4.73
2018-06-17T01:16:00.650Z,4.70
2018-06-17T01:18:29.113Z,4.80
2018-06-17T01:20:58.720Z,4.20
2018-06-17T01:23:27.209Z,5.10
2018-06-17T01:25:55.722Z,5.40
2018-06-17T01:28:24.173Z,5.47
2018-06-17T01:30:52.711Z,5.03
2018-06-17T01:33:21.149Z,4.90
2018-06-17T01:35:49.598Z,4.47
2018-06-17T01:38:17.993Z,4.63
2018-06-17T01:40:53.933Z,5.43
2018-06-17T01:43:22.392Z,5.17
2018-06-17T01:45:50.941Z,5.30
2018-06-17T01:48:19.053Z,5.43
2018-06-17T01:50:47.519Z,5.47
2018-06-17T01:53:15.969Z,5.90
2018-06-17T01:55:44.470Z,6.53
2018-06-17T01:58:12.918Z,5.83
2018-06-17T02:00:41.385Z,6.80
2018-06-17T02:03:15.333Z,5.77
2018-06-17T02:05:49.177Z,6.03
2018-06-17T02:08:23.021Z,6.60
2018-06-17T02:10:56.884Z,6.70
2018-06-17T02:13:25.389Z,6.03
2018-06-17T02:15:53.838Z,6.60
2018-06-17T02:18:22.299Z,5.33
2018-06-17T02:20:50.778Z,6.63
2018-06-17T02:23:19.213Z,5.03
2018-06-17T02:25:47.673Z,6.80
2018-06-17T02:28:16.118Z,5.60
2018-06-17T02:30:44.582Z,6.03
2018-06-17T02:33:13.027Z,5.40
2018-06-17T02:35:41.489Z,5.70
2018-06-17T02:38:09.910Z,5.00
2018-06-17T02:40:38.343Z,6.63
2018-06-17T02:43:06.809Z,5.43
2018-06-17T02:45:40.693Z,6.00
2018-06-17T02:48:14.425Z,5.70
2018-06-17T02:50:48.366Z,4.80
2018-06-17T02:53:22.185Z,7.70
2018-06-17T02:55:50.627Z,6.00
2018-06-17T02:58:19.053Z,5.60
2018-06-17T03:00:47.514Z,4.70
2018-06-17T03:03:15.954Z,4.03
2018-06-17T03:05:44.397Z,4.67
2018-06-17T03:08:12.820Z,4.37
2018-06-17T03:10:41.271Z,4.23
2018-06-17T03:13:09.698Z,4.20
2018-06-17T03:15:38.166Z,5.10
2018-06-17T03:18:06.578Z,4.77
2018-06-17T03:20:35.089Z,3.73
2018-06-17T03:23:03.554Z,4.00
2018-06-17T03:25:37.490Z,4.07
2018-06-17T03:28:11.426Z,3.57
2018-06-17T03:30:45.034Z,3.70
2018-06-17T03:33:18.866Z,3.80
2018-06-17T03:35:52.691Z,4.20
2018-06-17T03:38:21.142Z,3.40
2018-06-17T03:40:49.586Z,4.73
2018-06-17T03:43:18.074Z,4.50
2018-06-17T03:45:46.530Z,4.00
2018-06-17T03:48:14.980Z,3.50
2018-06-17T03:50:43.405Z,3.43
2018-06-17T03:53:11.866Z,3.70
2018-06-17T03:55:40.304Z,3.30
2018-06-17T03:58:08.802Z,3.30
2018-06-17T04:00:37.241Z,3.07
2018-06-17T04:03:05.692Z,3.80
2018-06-17T04:05:34.153Z,3.60
2018-06-17T04:08:02.602Z,3.33
2018-06-17T04:10:31.042Z,3.33
2018-06-17T04:12:59.494Z,3.33
2018-06-17T04:15:27.934Z,3.60
2018-06-17T04:17:56.386Z,4.20
2018-06-17T04:20:24.862Z,3.60
2018-06-17T04:22:53.329Z,3.70
2018-06-17T04:25:21.838Z,3.13
2018-06-17T04:27:50.261Z,3.70
2018-06-17T04:30:18.693Z,3.27
2018-06-17T04:32:47.153Z,3.40
2018-06-17T04:35:15.628Z,3.30
2018-06-17T04:37:44.086Z,3.90
2018-06-17T04:40:12.513Z,3.33
2018-06-17T04:42:41.042Z,3.97
2018-06-17T04:45:09.494Z,4.53
2018-06-17T04:47:37.955Z,3.93
2018-06-17T04:50:06.468Z,3.67
2018-06-17T04:52:34.916Z,3.30
2018-06-17T04:55:03.382Z,4.13
2018-06-17T04:57:31.845Z,4.60
2018-06-17T05:00:00.289Z,5.97
2018-06-17T05:02:28.781Z,6.13
2018-06-17T05:04:57.225Z,5.77
2018-06-17T05:07:25.702Z,5.47
2018-06-17T05:09:54.261Z,6.40
2018-06-17T05:12:22.750Z,5.97
2018-06-17T05:14:51.216Z,5.93
2018-06-17T05:17:19.666Z,7.30
2018-06-17T05:19:48.113Z,8.00
2018-06-17T05:22:16.565Z,7.90
2018-06-17T05:24:45.041Z,8.20
2018-06-17T05:27:13.512Z,8.47
2018-06-17T05:29:41.975Z,9.70
2018-06-17T05:32:10.433Z,9.67
2018-06-17T05:34:38.893Z,9.60
2018-06-17T05:37:07.382Z,10.00
2018-06-17T05:39:35.812Z,9.70
2018-06-17T05:42:04.285Z,12.43
2018-06-17T05:44:32.709Z,9.13
2018-06-17T05:47:01.174Z,11.27
2018-06-17T05:49:29.600Z,10.10
2018-06-17T05:51:58.030Z,9.27
2018-06-17T05:54:26.465Z,9.17
2018-06-17T05:56:54.908Z,9.50
2018-06-17T05:59:23.348Z,10.63
2018-06-17T06:01:51.757Z,9.40
2018-06-17T06:04:20.196Z,9.00
2018-06-17T06:06:48.605Z,6.90
2018-06-17T06:09:17.037Z,5.90
2018-06-17T06:11:45.145Z,5.93
2018-06-17T06:14:13.599Z,5.27
2018-06-17T06:16:42.007Z,5.17
2018-06-17T06:19:10.477Z,4.57
2018-06-17T06:21:38.916Z,5.20
2018-06-17T06:24:07.376Z,5.30
2018-06-17T06:26:35.817Z,4.97
2018-06-17T06:29:04.282Z,5.20
2018-06-17T06:31:32.690Z,4.50
2018-06-17T06:34:01.161Z,3.00
2018-06-17T06:36:29.727Z,2.20
2018-06-17T06:38:58.185Z,2.60
2018-06-17T06:41:26.619Z,2.33
2018-06-17T06:43:55.096Z,2.03
2018-06-17T06:46:23.568Z,2.20
2018-06-17T06:48:52.041Z,1.90
2018-06-17T06:51:20.517Z,1.90
2018-06-17T06:53:49.015Z,2.13
2018-06-17T06:56:17.450Z,1.60
2018-06-17T06:58:45.896Z,2.50
2018-06-17T07:01:24.309Z,2.87
2018-06-17T07:04:04.134Z,2.10
2018-06-17T07:06:43.774Z,1.80
2018-06-17T07:09:23.310Z,2.27
2018-06-17T07:11:51.750Z,1.73
2018-06-17T07:14:20.492Z,2.10
2018-06-17T07:17:00.344Z,2.17
2018-06-17T07:19:28.797Z,2.17
2018-06-17T07:21:57.323Z,2.40
2018-06-17T07:24:25.745Z,2.03
2018-06-17T07:27:05.466Z,2.27
2018-06-17T07:29:41.868Z,1.90
2018-06-17T07:32:10.354Z,1.70
2018-06-17T07:34:38.512Z,2.10
2018-06-17T07:37:07.017Z,1.70
2018-06-17T07:41:44.848Z,2.10
2018-06-17T07:44:13.312Z,2.10
2018-06-17T07:46:41.782Z,1.70
2018-06-17T07:50:28.349Z,1.37
2018-06-17T07:53:08.109Z,1.90
2018-06-17T07:55:36.566Z,1.43
2018-06-17T07:58:05.091Z,1.50
2018-06-17T08:00:33.548Z,1.70
2018-06-17T08:03:01.994Z,2.63
2018-06-17T08:05:30.463Z,1.63
2018-06-17T08:07:58.921Z,1.37
2018-06-17T08:10:27.407Z,1.50
2018-06-17T08:12:55.832Z,1.50
2018-06-17T08:15:24.948Z,1.40
2018-06-17T08:17:53.364Z,1.60
2018-06-17T08:20:21.794Z,1.50
2018-06-17T08:22:50.209Z,1.77
2018-06-17T08:25:18.657Z,1.70
2018-06-17T08:27:47.053Z,1.90
2018-06-17T08:30:15.493Z,2.17
2018-06-17T08:32:43.966Z,1.60
2018-06-17T08:35:12.418Z,2.03
2018-06-17T08:37:40.817Z,1.50
2018-06-17T08:40:09.293Z,1.67
2018-06-17T08:42:37.700Z,1.60
2018-06-17T08:45:06.144Z,1.40
2018-06-17T08:47:34.559Z,1.20
2018-06-17T08:50:03.025Z,1.80
2018-06-17T08:52:31.466Z,1.20
2018-06-17T08:54:59.912Z,1.00
2018-06-17T08:57:28.332Z,1.00
2018-06-17T08:59:56.758Z,1.07
2018-06-17T09:02:25.201Z,1.20
2018-06-17T09:04:53.636Z,1.30
2018-06-17T09:07:22.049Z,0.90
2018-06-17T09:09:50.509Z,1.10
2018-06-17T09:12:18.983Z,0.80
2018-06-17T09:14:47.386Z,1.40
2018-06-17T09:17:15.818Z,0.83
2018-06-17T09:19:44.230Z,1.13
2018-06-17T09:22:12.666Z,0.97
2018-06-17T09:24:41.077Z,1.23
2018-06-17T09:27:09.965Z,1.30
2018-06-17T09:29:38.380Z,1.07
2018-06-17T09:32:07.258Z,1.00
2018-06-17T09:34:35.670Z,1.00
2018-06-17T09:37:04.102Z,1.00
2018-06-17T09:39:32.545Z,1.10
2018-06-17T09:42:00.977Z,0.80
2018-06-17T09:44:29.441Z,0.87
2018-06-17T09:46:57.919Z,1.03
2018-06-17T09:49:26.335Z,1.20
2018-06-17T09:51:54.816Z,1.00
2018-06-17T09:54:23.264Z,0.90
2018-06-17T09:56:51.695Z,1.30
2018-06-17T09:59:20.121Z,1.03
2018-06-17T10:01:48.653Z,1.10
2018-06-17T10:04:17.117Z,1.37
2018-06-17T10:06:45.500Z,1.13
2018-06-17T10:09:13.905Z,1.27
2018-06-17T10:11:42.335Z,1.27
2018-06-17T10:14:10.742Z,1.77
2018-06-17T10:16:39.181Z,1.30
2018-06-17T10:19:07.610Z,1.60
2018-06-17T10:21:36.029Z,1.60
2018-06-17T10:24:04.441Z,1.70
2018-06-17T10:26:33.240Z,1.70
2018-06-17T10:29:02.320Z,1.40
2018-06-17T10:31:30.749Z,1.40
2018-06-17T10:33:59.172Z,1.40
2018-06-17T10:36:27.617Z,1.37
2018-06-17T10:38:56.028Z,1.37
2018-06-17T10:41:24.466Z,1.40
2018-06-17T10:43:52.905Z,1.60
2018-06-17T10:46:21.377Z,1.63
2018-06-17T10:48:49.810Z,1.90
2018-06-17T10:51:18.243Z,1.73
2018-06-17T10:53:46.734Z,1.20
2018-06-17T10:56:15.212Z,1.70
2018-06-17T10:58:43.573Z,1.57
2018-06-17T11:01:12.018Z,1.70
2018-06-17T11:03:40.460Z,1.77
2018-06-17T11:06:08.874Z,1.43
2018-06-17T11:08:37.317Z,1.60
2018-06-17T11:11:05.790Z,1.60
2018-06-17T11:13:34.689Z,2.30
2018-06-17T11:16:03.328Z,2.40
2018-06-17T11:18:31.744Z,2.00
2018-06-17T11:21:00.298Z,1.80
2018-06-17T11:23:28.841Z,1.70
2018-06-17T11:25:57.265Z,1.77
2018-06-17T11:28:25.705Z,1.40
2018-06-17T11:30:54.125Z,1.50
2018-06-17T11:33:22.555Z,1.87
2018-06-17T11:35:51.030Z,1.77
2018-06-17T11:38:19.497Z,1.73
2018-06-17T11:40:47.928Z,2.20
2018-06-17T11:43:16.381Z,1.73
2018-06-17T11:45:44.882Z,1.87
2018-06-17T11:48:13.350Z,2.10
2018-06-17T11:50:41.801Z,2.03
2018-06-17T11:53:10.288Z,2.27
2018-06-17T11:55:38.796Z,1.97
2018-06-17T11:58:07.278Z,1.83
2018-06-17T12:00:35.747Z,2.13
2018-06-17T12:03:04.222Z,1.90
2018-06-17T12:05:32.941Z,1.93
2018-06-17T12:08:01.406Z,2.27
2018-06-17T12:10:29.889Z,2.07
2018-06-17T12:12:58.330Z,2.30
2018-06-17T12:15:26.831Z,1.90
2018-06-17T12:17:55.348Z,1.80
2018-06-17T12:20:23.889Z,1.70
2018-06-17T12:22:52.390Z,2.10
2018-06-17T12:25:20.906Z,2.10
2018-06-17T12:27:50.313Z,2.17
2018-06-17T12:30:18.793Z,2.20
2018-06-17T12:32:47.294Z,1.80
2018-06-17T12:35:15.789Z,2.10
2018-06-17T12:37:44.238Z,1.90
2018-06-17T12:40:12.718Z,2.07
2018-06-17T12:42:41.178Z,2.07
2018-06-17T12:45:09.683Z,1.80
2018-06-17T12:47:38.167Z,1.73
2018-06-17T12:50:06.634Z,2.00
2018-06-17T12:52:35.240Z,2.30
2018-06-17T12:55:03.861Z,2.07
2018-06-17T12:57:32.338Z,2.10
2018-06-17T13:00:00.886Z,2.13
2018-06-17T13:02:29.342Z,2.00
2018-06-17T13:04:58.140Z,1.80
2018-06-17T13:07:27.278Z,1.90
2018-06-17T13:09:55.756Z,2.00
2018-06-17T13:12:24.298Z,1.77
2018-06-17T13:14:52.815Z,1.80
2018-06-17T13:17:21.326Z,1.70
2018-06-17T13:19:49.806Z,1.90
2018-06-17T13:22:18.276Z,1.60
2018-06-17T13:24:46.738Z,2.20
2018-06-17T13:27:16.022Z,2.27
2018-06-17T13:29:44.470Z,3.53
2018-06-17T13:32:12.959Z,2.20
2018-06-17T13:34:41.105Z,2.23
2018-06-17T13:37:09.603Z,2.17
2018-06-17T13:39:38.079Z,1.90
2018-06-17T13:42:06.590Z,1.97
2018-06-17T13:44:35.095Z,1.93
2018-06-17T13:47:03.643Z,1.83
2018-06-17T13:49:32.119Z,1.93
2018-06-17T13:52:00.585Z,2.17
2018-06-17T13:54:29.027Z,1.90
2018-06-17T13:56:57.509Z,2.00
2018-06-17T13:59:25.987Z,1.60
2018-06-17T14:01:54.466Z,2.10
2018-06-17T14:04:22.945Z,2.30
2018-06-17T14:06:51.413Z,2.00
2018-06-17T14:09:19.858Z,1.77
2018-06-17T14:11:48.358Z,2.20
2018-06-17T14:14:16.842Z,2.10
2018-06-17T14:16:45.390Z,2.20
2018-06-17T14:19:13.846Z,2.30
2018-06-17T14:21:42.337Z,2.37
2018-06-17T14:24:10.836Z,2.13
2018-06-17T14:26:39.321Z,2.20
2018-06-17T14:29:07.797Z,1.57
2018-06-17T14:31:36.306Z,1.80
2018-06-17T14:34:04.783Z,1.97
2018-06-17T14:36:33.286Z,1.90
2018-06-17T14:39:01.732Z,2.00
2018-06-17T14:41:30.230Z,1.67
2018-06-17T14:44:04.121Z,3.33
2018-06-17T14:46:37.996Z,2.10
2018-06-17T14:49:11.683Z,2.40
2018-06-17T14:51:45.374Z,2.10
2018-06-17T14:54:13.789Z,1.90
2018-06-17T14:56:42.230Z,2.00
2018-06-17T14:59:10.653Z,2.23
2018-06-17T15:01:39.114Z,1.83
2018-06-17T15:04:07.537Z,2.07
2018-06-17T15:06:35.991Z,2.67
2018-06-17T15:09:07.529Z,2.27
2018-06-17T15:11:35.983Z,2.33
2018-06-17T15:14:04.589Z,2.20
2018-06-17T15:16:33.067Z,2.40
2018-06-17T15:19:01.498Z,2.47
2018-06-17T15:21:29.957Z,2.10
2018-06-17T15:23:58.430Z,2.30
2018-06-17T15:26:26.870Z,2.13
2018-06-17T15:28:55.350Z,1.90
2018-06-17T15:31:29.231Z,2.43
2018-06-17T15:34:03.041Z,2.23
2018-06-17T15:36:36.778Z,2.67
2018-06-17T15:39:12.534Z,2.60
2018-06-17T15:41:41.086Z,2.93
2018-06-17T15:44:09.563Z,2.07
2018-06-17T15:46:38.015Z,3.37
2018-06-17T15:49:06.497Z,1.77
2018-06-17T15:51:34.942Z,3.53
2018-06-17T15:54:03.422Z,2.10
2018-06-17T15:56:31.843Z,2.40
2018-06-17T15:59:00.300Z,2.33
2018-06-17T16:01:28.817Z,1.80
2018-06-17T16:03:57.269Z,3.43
2018-06-17T16:06:25.713Z,4.00
2018-06-17T16:08:54.177Z,2.57
2018-06-17T16:11:22.610Z,1.87
2018-06-17T16:13:56.374Z,2.10
2018-06-17T16:16:30.025Z,2.23
2018-06-17T16:19:03.733Z,2.13
2018-06-17T16:21:32.159Z,2.50
2018-06-17T16:24:00.313Z,1.97
2018-06-17T16:26:28.778Z,3.00
2018-06-17T16:28:57.227Z,2.10
2018-06-17T16:31:25.651Z,2.93
2018-06-17T16:33:54.170Z,2.17
2018-06-17T16:36:22.662Z,2.20
2018-06-17T16:38:51.151Z,2.20
2018-06-17T16:41:19.620Z,7.27
2018-06-17T16:43:48.117Z,2.20
2018-06-17T16:46:16.642Z,2.73
2018-06-17T16:48:45.123Z,4.30
2018-06-17T16:53:24.008Z,2.50
2018-06-17T16:55:57.765Z,2.00
2018-06-17T16:58:35.140Z,2.40
2018-06-17T17:01:04.798Z,3.50
2018-06-17T17:03:33.284Z,3.47
2018-06-17T17:06:01.841Z,3.60
2018-06-17T17:08:30.369Z,3.13
2018-06-17T17:10:58.858Z,3.07
2018-06-17T17:13:27.346Z,2.53
2018-06-17T17:15:55.843Z,2.50
2018-06-17T17:18:24.301Z,2.20
2018-06-17T17:20:52.851Z,2.20
2018-06-17T17:23:21.407Z,2.00
2018-06-17T17:25:49.826Z,2.20
2018-06-17T17:28:18.281Z,2.73
2018-06-17T17:30:48.461Z,2.43
2018-06-17T17:33:22.195Z,2.73
2018-06-17T17:35:56.088Z,2.10
2018-06-17T17:38:28.472Z,2.17
2018-06-17T17:41:00.047Z,2.33
2018-06-17T17:43:28.694Z,2.17
2018-06-17T17:46:02.372Z,3.10
2018-06-17T17:48:31.033Z,2.43
2018-06-17T17:50:59.854Z,1.70
2018-06-17T17:53:28.490Z,1.90
2018-06-17T17:55:56.958Z,2.27
2018-06-17T17:58:25.407Z,2.00
2018-06-17T18:00:53.941Z,2.20
2018-06-17T18:03:22.723Z,2.23
2018-06-17T18:05:51.257Z,2.03
2018-06-17T18:08:19.711Z,1.80
2018-06-17T18:10:48.196Z,2.07
2018-06-17T18:13:16.689Z,2.20
2018-06-17T18:15:45.443Z,2.10
2018-06-17T18:18:13.902Z,1.70
2018-06-17T18:20:42.430Z,2.10
2018-06-17T18:23:10.847Z,2.03
2018-06-17T18:25:44.577Z,2.10
2018-06-17T18:28:18.322Z,1.83
2018-06-17T18:31:00.025Z,1.93
2018-06-17T18:33:33.778Z,2.27
2018-06-17T18:36:09.330Z,1.90
2018-06-17T18:38:39.309Z,2.27
2018-06-17T18:41:07.856Z,2.07
2018-06-17T18:43:36.401Z,2.77
2018-06-17T18:46:04.911Z,3.03
2018-06-17T18:48:33.389Z,3.27
2018-06-17T18:51:01.858Z,2.73
2018-06-17T18:53:30.338Z,2.77
2018-06-17T18:55:58.804Z,2.90
2018-06-17T18:58:27.295Z,3.00
2018-06-17T19:00:55.782Z,3.00
2018-06-17T19:03:24.818Z,3.03
2018-06-17T19:05:53.394Z,3.27
2018-06-17T19:08:27.293Z,2.83
2018-06-17T19:11:01.137Z,3.17
2018-06-17T19:13:34.930Z,3.27
2018-06-17T19:16:11.022Z,3.53
2018-06-17T19:18:39.489Z,3.80
2018-06-17T19:21:07.959Z,3.43
2018-06-17T19:23:36.434Z,3.20
2018-06-17T19:26:04.949Z,3.10
2018-06-17T19:28:33.417Z,3.30
2018-06-17T19:31:01.880Z,3.47
2018-06-17T19:33:30.346Z,4.17
2018-06-17T19:35:58.819Z,3.10
2018-06-17T19:38:27.358Z,3.37
2018-06-17T19:40:55.868Z,3.40
2018-06-17T19:43:24.390Z,3.53
2018-06-17T19:45:52.838Z,3.10
2018-06-17T19:48:21.304Z,3.60
2018-06-17T19:50:55.090Z,3.27
2018-06-17T19:53:28.889Z,4.23
2018-06-17T19:56:02.711Z,3.70
2018-06-17T19:58:36.652Z,3.93
2018-06-17T20:01:05.526Z,4.70
2018-06-17T20:03:33.989Z,3.30
2018-06-17T20:06:02.523Z,3.57
2018-06-17T20:08:30.950Z,3.70
2018-06-17T20:10:59.446Z,3.60
2018-06-17T20:13:27.905Z,3.57
2018-06-17T20:15:56.390Z,3.07
2018-06-17T20:18:24.858Z,3.17
2018-06-17T20:20:53.375Z,3.47
2018-06-17T20:23:21.830Z,3.00
2018-06-17T20:25:50.381Z,2.60
2018-06-17T20:28:18.829Z,2.87
2018-06-17T20:30:47.349Z,2.63
2018-06-17T20:33:21.136Z,3.20
2018-06-17T20:35:54.954Z,3.10
2018-06-17T20:38:28.748Z,2.77
2018-06-17T20:42:00.095Z,2.50
2018-06-17T20:44:28.553Z,2.97
2018-06-17T20:46:57.047Z,3.50
2018-06-17T20:49:25.513Z,2.87
2018-06-17T20:51:53.985Z,3.20
2018-06-17T20:54:22.543Z,3.10
2018-06-17T20:56:51.022Z,2.67
2018-06-17T20:59:19.479Z,3.37
2018-06-17T21:01:48.022Z,4.03
2018-06-17T21:04:16.611Z,4.50
2018-06-17T21:06:45.115Z,3.40
2018-06-17T21:09:13.581Z,2.77
2018-06-17T21:11:42.053Z,2.60
2018-06-17T21:14:10.528Z,3.47
2018-06-17T21:16:38.990Z,3.50
2018-06-17T21:19:12.793Z,2.57
2018-06-17T21:21:46.685Z,3.13
2018-06-17T21:24:20.364Z,3.03
2018-06-17T21:26:54.347Z,2.90
2018-06-17T21:29:23.034Z,3.20
2018-06-17T21:31:51.560Z,3.30
2018-06-17T21:34:20.000Z,2.70
2018-06-17T21:36:48.545Z,3.40
2018-06-17T21:39:16.951Z,2.97
2018-06-17T21:41:45.411Z,3.00
2018-06-17T21:44:13.843Z,3.00
2018-06-17T21:46:42.340Z,3.43
2018-06-17T21:49:10.757Z,2.73
2018-06-17T21:51:39.197Z,3.17
2018-06-17T21:54:07.308Z,3.27
2018-06-17T21:56:35.774Z,3.43
2018-06-17T21:59:04.488Z,2.70
2018-06-17T22:01:32.950Z,2.70
2018-06-17T22:04:06.788Z,3.43
2018-06-17T22:06:35.321Z,3.40
2018-06-17T22:09:09.589Z,2.80
2018-06-17T22:11:43.446Z,2.67
2018-06-17T22:14:17.298Z,2.90
2018-06-17T22:16:51.069Z,2.30
2018-06-17T22:19:19.501Z,2.53
2018-06-17T22:21:47.965Z,2.13
2018-06-17T22:24:16.382Z,2.40
2018-06-17T22:26:44.802Z,2.87
2018-06-17T22:29:13.296Z,2.67
2018-06-17T22:31:41.745Z,2.30
2018-06-17T22:34:10.189Z,2.60
2018-06-17T22:36:38.698Z,2.77
2018-06-17T22:39:08.558Z,2.53
2018-06-17T22:41:37.269Z,2.73
2018-06-17T22:44:05.758Z,2.43
2018-06-17T22:46:34.214Z,2.37
2018-06-17T22:49:02.687Z,3.50
2018-06-17T22:51:31.174Z,2.80
2018-06-17T22:54:10.722Z,2.33
2018-06-17T22:56:44.346Z,2.33
2018-06-17T22:59:18.333Z,2.30
2018-06-17T23:01:52.181Z,2.40
2018-06-17T23:04:26.014Z,2.20
2018-06-17T23:06:59.772Z,2.70
2018-06-17T23:09:33.601Z,2.40
2018-06-17T23:12:02.281Z,2.70
2018-06-17T23:14:30.767Z,2.43
2018-06-17T23:16:59.233Z,2.53
2018-06-17T23:19:27.726Z,2.73
2018-06-17T23:21:56.165Z,2.27
2018-06-17T23:24:25.522Z,2.53
2018-06-17T23:26:54.022Z,2.57
2018-06-17T23:29:22.777Z,3.07
2018-06-17T23:31:51.223Z,2.43
2018-06-17T23:34:20.511Z,2.37
2018-06-17T23:36:49.234Z,2.67
2018-06-17T23:39:17.735Z,2.23
2018-06-17T23:41:46.225Z,2.90
2018-06-17T23:44:14.706Z,2.73
2018-06-17T23:46:48.570Z,2.50
2018-06-17T23:49:22.413Z,2.87
2018-06-17T23:51:56.277Z,2.60
2018-06-17T23:54:30.037Z,2.23
2018-06-17T23:56:58.513Z,2.50
2018-06-17T23:59:27.008Z,2.80
